Mayo, Yukon Territory

9:56 AM PDT on August 27, 2016 (GMT -0700)
Mayo | | Change Station

Elev 1654 ft 63.62 °N, 135.87 °W | Updated 56 minutes ago

Mostly Cloudy
Mostly Cloudy
45 °F
Feels Like 43 °F
N
4
Wind Variable Wind from ENE

Today
High -- | Low -- °F
--% Chance of Precip.
Yesterday
High -- | Low -- °F
Precip. -- in
Pressure 30.24 in
Visibility 20.0 miles
Clouds Few 7500 ft
Mostly Cloudy 9000 ft
Mostly Cloudy 12000 ft
Windchill 43 °F
Dew Point 41 °F
Humidity 87%
Rainfall 0.00 in
Snow Depth Not available.
6:35 AM 9:32 PM
Waning Crescent, 23% visible
METAR CYMA 271600Z 06003KT 360V150 20SM FEW075 BKN090 BKN120 07/05 A3018 RMK AC2AC3AC2 SLP240
Pressure 30.24 in
Visibility 20.0 miles
Clouds Few 7500 ft
Mostly Cloudy 9000 ft
Mostly Cloudy 12000 ft
Windchill 43 °F
Dew Point 41 °F
Humidity 87%
Rainfall 0.00 in
Snow Depth Not available.
6:35 AM 9:32 PM
Waning Crescent, 23% visible
METAR CYMA 271600Z 06003KT 360V150 20SM FEW075 BKN090 BKN120 07/05 A3018 RMK AC2AC3AC2 SLP240

10-Day Weather Forecast

No radar image for this location.
×

Almanac

Astronomy

Aug. 27, 2016 Rise Set
Actual Time
Civil Twilight
Nautical Twilight
Astronomical Twilight
Moon
Length of Visible Light
Length of Day
Tomorrow will be .
, % of the Moon is Illuminated

Today's Extremes

Country Highs Country Lows

Community

WunderPhotos

Upload Photos

1,935,377 photos uploaded!

WunderBlog® & News

Nearby

Air Quality

  Air Quality AQ Index Pollutant
Not available.

Snow Depth

Station Depth Elevation

Earthquake Activity

City Distance Mag. Time & Date
Minimum magnitude displayed is 2.5.

Coastal Water Temperatures

Place Temperature

Stations

Nearby Weather Stations

Station Location Temp. Windchill Dew Point Humidity Wind Precip. Elev Updated Type
                   

Watches & Warnings

There are currently no watches in effect.